sensor_id;sensor_type;location;lat;lon;timestamp;temperature;humidity
18189;DHT22;9219;50.396;8.546;2023-12-04T00:04:11;-1.70;99.90
18189;DHT22;9219;50.396;8.546;2023-12-04T00:06:40;-1.80;99.90
18189;DHT22;9219;50.396;8.546;2023-12-04T00:09:07;-1.80;99.90
18189;DHT22;9219;50.396;8.546;2023-12-04T00:11:35;-1.80;99.90
18189;DHT22;9219;50.396;8.546;2023-12-04T00:14:02;-1.70;99.90
18189;DHT22;9219;50.396;8.546;2023-12-04T00:16:29;-1.70;99.90
18189;DHT22;9219;50.396;8.546;2023-12-04T00:18:56;-1.60;99.90
18189;DHT22;9219;50.396;8.546;2023-12-04T00:21:25;-1.80;99.90
18189;DHT22;9219;50.396;8.546;2023-12-04T00:25:24;-1.80;99.90
18189;DHT22;9219;50.396;8.546;2023-12-04T00:27:51;-1.90;99.90
18189;DHT22;9219;50.396;8.546;2023-12-04T00:30:18;-1.90;99.90
18189;DHT22;9219;50.396;8.546;2023-12-04T00:32:45;-1.90;99.90
18189;DHT22;9219;50.396;8.546;2023-12-04T00:35:13;-2.00;99.90
18189;DHT22;9219;50.396;8.546;2023-12-04T00:37:40;-2.00;99.90
18189;DHT22;9219;50.396;8.546;2023-12-04T00:40:08;-2.00;99.90
18189;DHT22;9219;50.396;8.546;2023-12-04T00:42:37;-2.00;99.90
18189;DHT22;9219;50.396;8.546;2023-12-04T00:46:36;-2.00;99.90
18189;DHT22;9219;50.396;8.546;2023-12-04T00:49:04;-1.90;99.90
18189;DHT22;9219;50.396;8.546;2023-12-04T00:51:37;-1.80;99.90
18189;DHT22;9219;50.396;8.546;2023-12-04T00:54:08;-1.80;99.90
18189;DHT22;9219;50.396;8.546;2023-12-04T00:56:38;-1.80;99.90
18189;DHT22;9219;50.396;8.546;2023-12-04T00:59:06;-1.90;99.90
18189;DHT22;9219;50.396;8.546;2023-12-04T01:01:33;-1.90;99.90
18189;DHT22;9219;50.396;8.546;2023-12-04T01:07:33;-1.80;99.90
18189;DHT22;9219;50.396;8.546;2023-12-04T01:10:00;-2.10;99.90
18189;DHT22;9219;50.396;8.546;2023-12-04T01:12:27;-2.00;99.90
18189;DHT22;9219;50.396;8.546;2023-12-04T01:14:55;-2.00;99.90
18189;DHT22;9219;50.396;8.546;2023-12-04T01:17:22;-2.00;99.90
18189;DHT22;9219;50.396;8.546;2023-12-04T01:19:49;-2.00;99.90
18189;DHT22;9219;50.396;8.546;2023-12-04T01:22:16;-2.10;99.90
18189;DHT22;9219;50.396;8.546;2023-12-04T01:28:15;-2.10;99.90
18189;DHT22;9219;50.396;8.546;2023-12-04T01:30:43;-2.00;99.90
18189;DHT22;9219;50.396;8.546;2023-12-04T01:33:10;-2.20;99.90
18189;DHT22;9219;50.396;8.546;2023-12-04T01:35:38;-2.20;99.90
18189;DHT22;9219;50.396;8.546;2023-12-04T01:38:05;-2.20;99.90
18189;DHT22;9219;50.396;8.546;2023-12-04T01:40:32;-2.30;99.90
18189;DHT22;9219;50.396;8.546;2023-12-04T01:43:00;-2.20;99.90
18189;DHT22;9219;50.396;8.546;2023-12-04T01:45:28;-2.30;99.90
18189;DHT22;9219;50.396;8.546;2023-12-04T01:53:01;-2.30;99.90
18189;DHT22;9219;50.396;8.546;2023-12-04T01:55:30;-2.30;99.90
18189;DHT22;9219;50.396;8.546;2023-12-04T01:57:59;-2.20;99.90
18189;DHT22;9219;50.396;8.546;2023-12-04T02:00:27;-2.20;99.90
18189;DHT22;9219;50.396;8.546;2023-12-04T02:02:54;-2.30;99.90
18189;DHT22;9219;50.396;8.546;2023-12-04T02:05:21;-2.30;99.90
18189;DHT22;9219;50.396;8.546;2023-12-04T02:07:49;-2.30;99.90
18189;DHT22;9219;50.396;8.546;2023-12-04T02:10:18;-2.40;99.90
18189;DHT22;9219;50.396;8.546;2023-12-04T02:16:55;-2.40;99.90
18189;DHT22;9219;50.396;8.546;2023-12-04T02:19:23;-2.50;99.90
18189;DHT22;9219;50.396;8.546;2023-12-04T02:21:51;-2.40;99.90
18189;DHT22;9219;50.396;8.546;2023-12-04T02:24:19;-2.40;99.90
18189;DHT22;9219;50.396;8.546;2023-12-04T02:26:49;-2.40;99.90
18189;DHT22;9219;50.396;8.546;2023-12-04T02:29:23;-2.40;99.90
18189;DHT22;9219;50.396;8.546;2023-12-04T02:31:51;-2.40;99.90
18189;DHT22;9219;50.396;8.546;2023-12-04T02:34:21;-2.40;99.90
18189;DHT22;9219;50.396;8.546;2023-12-04T02:44:15;-2.50;99.90
18189;DHT22;9219;50.396;8.546;2023-12-04T02:46:43;-2.30;99.90
18189;DHT22;9219;50.396;8.546;2023-12-04T02:49:10;-2.50;99.90
18189;DHT22;9219;50.396;8.546;2023-12-04T02:51:40;-2.50;99.90
18189;DHT22;9219;50.396;8.546;2023-12-04T02:54:08;-2.60;99.90
18189;DHT22;9219;50.396;8.546;2023-12-04T02:56:35;-2.60;99.90
18189;DHT22;9219;50.396;8.546;2023-12-04T02:59:02;-2.60;99.90
18189;DHT22;9219;50.396;8.546;2023-12-04T03:01:31;-2.60;99.90
18189;DHT22;9219;50.396;8.546;2023-12-04T03:08:07;-2.60;99.90
18189;DHT22;9219;50.396;8.546;2023-12-04T03:10:35;-2.70;99.90
18189;DHT22;9219;50.396;8.546;2023-12-04T03:13:02;-2.70;99.90
18189;DHT22;9219;50.396;8.546;2023-12-04T03:15:29;-2.70;99.90
18189;DHT22;9219;50.396;8.546;2023-12-04T03:17:59;-2.70;99.90
18189;DHT22;9219;50.396;8.546;2023-12-04T03:20:27;-2.80;99.90
18189;DHT22;9219;50.396;8.546;2023-12-04T03:22:54;-2.80;99.90
18189;DHT22;9219;50.396;8.546;2023-12-04T03:28:19;-2.90;99.90
18189;DHT22;9219;50.396;8.546;2023-12-04T03:30:47;-3.00;99.90
18189;DHT22;9219;50.396;8.546;2023-12-04T03:33:14;-2.80;99.90
18189;DHT22;9219;50.396;8.546;2023-12-04T03:35:41;-2.90;99.90
18189;DHT22;9219;50.396;8.546;2023-12-04T03:38:09;-3.00;99.90
18189;DHT22;9219;50.396;8.546;2023-12-04T03:40:36;-3.00;99.90
18189;DHT22;9219;50.396;8.546;2023-12-04T03:43:03;-3.00;99.90
18189;DHT22;9219;50.396;8.546;2023-12-04T03:45:32;-3.00;99.90
18189;DHT22;9219;50.396;8.546;2023-12-04T03:52:09;-3.00;99.90
18189;DHT22;9219;50.396;8.546;2023-12-04T03:54:36;-3.10;99.90
18189;DHT22;9219;50.396;8.546;2023-12-04T03:57:04;-3.00;99.90
18189;DHT22;9219;50.396;8.546;2023-12-04T03:59:31;-2.90;99.90
18189;DHT22;9219;50.396;8.546;2023-12-04T04:01:58;-2.90;99.90
18189;DHT22;9219;50.396;8.546;2023-12-04T04:04:25;-3.00;99.90
18189;DHT22;9219;50.396;8.546;2023-12-04T04:06:53;-3.10;99.90
18189;DHT22;9219;50.396;8.546;2023-12-04T04:09:36;-3.10;99.90
18189;DHT22;9219;50.396;8.546;2023-12-04T04:12:36;-3.10;99.90
18189;DHT22;9219;50.396;8.546;2023-12-04T04:15:04;-3.00;99.90
18189;DHT22;9219;50.396;8.546;2023-12-04T04:17:33;-3.10;99.90
18189;DHT22;9219;50.396;8.546;2023-12-04T04:20:00;-3.00;99.90
18189;DHT22;9219;50.396;8.546;2023-12-04T04:22:27;-3.00;99.90
18189;DHT22;9219;50.396;8.546;2023-12-04T04:24:57;-3.00;99.90
18189;DHT22;9219;50.396;8.546;2023-12-04T04:27:24;-2.80;99.90
18189;DHT22;9219;50.396;8.546;2023-12-04T04:32:34;-2.80;99.90
18189;DHT22;9219;50.396;8.546;2023-12-04T04:35:01;-2.90;99.90
18189;DHT22;9219;50.396;8.546;2023-12-04T04:37:29;-2.90;99.90
18189;DHT22;9219;50.396;8.546;2023-12-04T04:39:56;-2.90;99.90
18189;DHT22;9219;50.396;8.546;2023-12-04T04:42:24;-3.00;99.90
18189;DHT22;9219;50.396;8.546;2023-12-04T04:44:51;-3.00;99.90
18189;DHT22;9219;50.396;8.546;2023-12-04T04:47:18;-3.10;99.90
18189;DHT22;9219;50.396;8.546;2023-12-04T04:52:25;-3.20;99.90
18189;DHT22;9219;50.396;8.546;2023-12-04T04:54:55;-3.00;99.90
18189;DHT22;9219;50.396;8.546;2023-12-04T04:57:22;-2.90;99.90
18189;DHT22;9219;50.396;8.546;2023-12-04T04:59:50;-2.70;99.90
18189;DHT22;9219;50.396;8.546;2023-12-04T05:02:17;-2.70;99.90
18189;DHT22;9219;50.396;8.546;2023-12-04T05:04:44;-2.70;99.90
18189;DHT22;9219;50.396;8.546;2023-12-04T05:07:12;-2.70;99.90
18189;DHT22;9219;50.396;8.546;2023-12-04T05:09:41;-2.80;99.90
18189;DHT22;9219;50.396;8.546;2023-12-04T05:17:42;-2.80;99.90
18189;DHT22;9219;50.396;8.546;2023-12-04T05:20:10;-2.80;99.90
18189;DHT22;9219;50.396;8.546;2023-12-04T05:22:37;-2.80;99.90
18189;DHT22;9219;50.396;8.546;2023-12-04T05:25:05;-2.90;99.90
18189;DHT22;9219;50.396;8.546;2023-12-04T05:27:33;-2.90;99.90
18189;DHT22;9219;50.396;8.546;2023-12-04T05:30:00;-3.00;99.90
18189;DHT22;9219;50.396;8.546;2023-12-04T05:32:28;-2.90;99.90
18189;DHT22;9219;50.396;8.546;2023-12-04T05:34:57;-3.00;99.90
18189;DHT22;9219;50.396;8.546;2023-12-04T05:42:38;-2.90;99.90
18189;DHT22;9219;50.396;8.546;2023-12-04T05:45:06;-3.00;99.90
18189;DHT22;9219;50.396;8.546;2023-12-04T05:47:34;-3.00;99.90
18189;DHT22;9219;50.396;8.546;2023-12-04T05:50:02;-3.00;99.90
18189;DHT22;9219;50.396;8.546;2023-12-04T05:52:29;-3.00;99.90
18189;DHT22;9219;50.396;8.546;2023-12-04T05:54:57;-3.00;99.90
18189;DHT22;9219;50.396;8.546;2023-12-04T05:57:24;-3.00;99.90
18189;DHT22;9219;50.396;8.546;2023-12-04T05:59:53;-3.00;99.90
18189;DHT22;9219;50.396;8.546;2023-12-04T06:06:29;-2.90;99.90
18189;DHT22;9219;50.396;8.546;2023-12-04T06:08:56;-2.80;99.90
18189;DHT22;9219;50.396;8.546;2023-12-04T06:11:23;-2.80;99.90
18189;DHT22;9219;50.396;8.546;2023-12-04T06:13:51;-2.60;99.90
18189;DHT22;9219;50.396;8.546;2023-12-04T06:16:18;-2.50;99.90
18189;DHT22;9219;50.396;8.546;2023-12-04T06:18:45;-2.50;99.90
18189;DHT22;9219;50.396;8.546;2023-12-04T06:21:12;-2.30;99.90
18189;DHT22;9219;50.396;8.546;2023-12-04T06:27:13;-2.40;99.90
18189;DHT22;9219;50.396;8.546;2023-12-04T06:29:43;-2.40;99.90
18189;DHT22;9219;50.396;8.546;2023-12-04T06:32:11;-2.30;99.90
18189;DHT22;9219;50.396;8.546;2023-12-04T06:34:39;-2.40;99.90
18189;DHT22;9219;50.396;8.546;2023-12-04T06:37:09;-2.50;99.90
18189;DHT22;9219;50.396;8.546;2023-12-04T06:39:38;-2.40;99.90
18189;DHT22;9219;50.396;8.546;2023-12-04T06:42:07;-2.30;99.90
18189;DHT22;9219;50.396;8.546;2023-12-04T06:48:25;-2.30;99.90
18189;DHT22;9219;50.396;8.546;2023-12-04T06:50:53;-2.20;99.90
18189;DHT22;9219;50.396;8.546;2023-12-04T06:53:20;-2.30;99.90
18189;DHT22;9219;50.396;8.546;2023-12-04T06:55:47;-2.30;99.90
18189;DHT22;9219;50.396;8.546;2023-12-04T06:58:14;-2.40;99.90
18189;DHT22;9219;50.396;8.546;2023-12-04T07:00:41;-2.30;99.90
18189;DHT22;9219;50.396;8.546;2023-12-04T07:03:08;-2.20;99.90
18189;DHT22;9219;50.396;8.546;2023-12-04T07:05:37;-2.30;99.90
18189;DHT22;9219;50.396;8.546;2023-12-04T07:12:13;-2.40;99.90
18189;DHT22;9219;50.396;8.546;2023-12-04T07:14:41;-2.50;99.90
18189;DHT22;9219;50.396;8.546;2023-12-04T07:17:08;-2.60;99.90
18189;DHT22;9219;50.396;8.546;2023-12-04T07:19:36;-2.60;99.90
18189;DHT22;9219;50.396;8.546;2023-12-04T07:22:03;-2.50;99.90
18189;DHT22;9219;50.396;8.546;2023-12-04T07:24:31;-2.40;99.90
18189;DHT22;9219;50.396;8.546;2023-12-04T07:26:58;-2.50;99.90
18189;DHT22;9219;50.396;8.546;2023-12-04T07:29:27;-2.50;99.90
18189;DHT22;9219;50.396;8.546;2023-12-04T07:36:55;-2.50;99.90
18189;DHT22;9219;50.396;8.546;2023-12-04T07:39:22;-2.40;99.90
18189;DHT22;9219;50.396;8.546;2023-12-04T07:41:49;-2.40;99.90
18189;DHT22;9219;50.396;8.546;2023-12-04T07:44:17;-2.40;99.90
18189;DHT22;9219;50.396;8.546;2023-12-04T07:46:45;-2.30;99.90
18189;DHT22;9219;50.396;8.546;2023-12-04T07:49:12;-2.20;99.90
18189;DHT22;9219;50.396;8.546;2023-12-04T07:51:40;-2.20;99.90
18189;DHT22;9219;50.396;8.546;2023-12-04T07:54:13;-2.10;99.90
18189;DHT22;9219;50.396;8.546;2023-12-04T08:02:10;-2.00;99.90
18189;DHT22;9219;50.396;8.546;2023-12-04T08:04:37;-1.80;99.90
18189;DHT22;9219;50.396;8.546;2023-12-04T08:07:05;-1.70;99.90
18189;DHT22;9219;50.396;8.546;2023-12-04T08:09:32;-1.60;99.90
18189;DHT22;9219;50.396;8.546;2023-12-04T08:11:59;-1.60;99.90
18189;DHT22;9219;50.396;8.546;2023-12-04T08:14:26;-1.60;99.90
18189;DHT22;9219;50.396;8.546;2023-12-04T08:16:54;-1.50;99.90
18189;DHT22;9219;50.396;8.546;2023-12-04T08:23:33;-1.50;99.90
18189;DHT22;9219;50.396;8.546;2023-12-04T08:26:01;-1.80;99.90
18189;DHT22;9219;50.396;8.546;2023-12-04T08:28:29;-1.90;99.90
18189;DHT22;9219;50.396;8.546;2023-12-04T08:30:57;-2.10;99.90
18189;DHT22;9219;50.396;8.546;2023-12-04T08:33:24;-2.30;99.90
18189;DHT22;9219;50.396;8.546;2023-12-04T08:35:54;-2.10;99.90
18189;DHT22;9219;50.396;8.546;2023-12-04T08:38:22;-2.10;99.90
18189;DHT22;9219;50.396;8.546;2023-12-04T08:40:50;-2.30;99.90
18189;DHT22;9219;50.396;8.546;2023-12-04T08:48:40;-2.30;99.90
18189;DHT22;9219;50.396;8.546;2023-12-04T08:51:08;-2.20;99.90
18189;DHT22;9219;50.396;8.546;2023-12-04T08:53:35;-2.10;99.90
18189;DHT22;9219;50.396;8.546;2023-12-04T08:56:04;-2.10;99.90
18189;DHT22;9219;50.396;8.546;2023-12-04T08:58:32;-2.10;99.90
18189;DHT22;9219;50.396;8.546;2023-12-04T09:00:59;-2.00;99.90
18189;DHT22;9219;50.396;8.546;2023-12-04T09:03:26;-2.00;99.90
18189;DHT22;9219;50.396;8.546;2023-12-04T09:09:52;-2.10;99.90
18189;DHT22;9219;50.396;8.546;2023-12-04T09:12:19;-2.00;99.90
18189;DHT22;9219;50.396;8.546;2023-12-04T09:14:47;-2.00;99.90
18189;DHT22;9219;50.396;8.546;2023-12-04T09:17:15;-2.00;99.90
18189;DHT22;9219;50.396;8.546;2023-12-04T09:19:43;-1.90;99.90
18189;DHT22;9219;50.396;8.546;2023-12-04T09:22:11;-1.90;99.90
18189;DHT22;9219;50.396;8.546;2023-12-04T09:24:47;-2.00;99.90
18189;DHT22;9219;50.396;8.546;2023-12-04T09:33:51;-1.80;99.90
18189;DHT22;9219;50.396;8.546;2023-12-04T09:36:18;-1.70;99.90
18189;DHT22;9219;50.396;8.546;2023-12-04T09:38:45;-1.70;99.90
18189;DHT22;9219;50.396;8.546;2023-12-04T09:41:15;-1.70;99.90
18189;DHT22;9219;50.396;8.546;2023-12-04T09:43:43;-1.80;99.90
18189;DHT22;9219;50.396;8.546;2023-12-04T09:46:11;-1.80;99.90
18189;DHT22;9219;50.396;8.546;2023-12-04T09:48:40;-1.80;99.90
18189;DHT22;9219;50.396;8.546;2023-12-04T09:57:40;-1.60;99.90
18189;DHT22;9219;50.396;8.546;2023-12-04T10:00:10;-1.60;99.90
18189;DHT22;9219;50.396;8.546;2023-12-04T10:02:40;-1.60;99.90
18189;DHT22;9219;50.396;8.546;2023-12-04T10:05:07;-1.80;99.90
18189;DHT22;9219;50.396;8.546;2023-12-04T10:07:35;-1.80;99.90
18189;DHT22;9219;50.396;8.546;2023-12-04T10:10:03;-1.90;99.90
18189;DHT22;9219;50.396;8.546;2023-12-04T10:12:32;-1.90;99.90
18189;DHT22;9219;50.396;8.546;2023-12-04T10:21:03;-1.90;99.90
18189;DHT22;9219;50.396;8.546;2023-12-04T10:23:37;-1.90;99.90
18189;DHT22;9219;50.396;8.546;2023-12-04T10:26:05;-1.80;99.90
18189;DHT22;9219;50.396;8.546;2023-12-04T10:28:34;-1.70;99.90
18189;DHT22;9219;50.396;8.546;2023-12-04T10:31:01;-1.80;99.90
18189;DHT22;9219;50.396;8.546;2023-12-04T10:33:33;-1.60;99.90
18189;DHT22;9219;50.396;8.546;2023-12-04T10:36:00;-1.60;99.90
18189;DHT22;9219;50.396;8.546;2023-12-04T10:41:13;-1.60;99.90
18189;DHT22;9219;50.396;8.546;2023-12-04T10:43:46;-1.60;99.90
18189;DHT22;9219;50.396;8.546;2023-12-04T10:46:24;-1.60;99.90
18189;DHT22;9219;50.396;8.546;2023-12-04T10:48:51;-1.70;99.90
18189;DHT22;9219;50.396;8.546;2023-12-04T10:51:20;-1.70;99.90
18189;DHT22;9219;50.396;8.546;2023-12-04T10:53:48;-1.60;99.90
18189;DHT22;9219;50.396;8.546;2023-12-04T10:56:19;-1.50;99.90
18189;DHT22;9219;50.396;8.546;2023-12-04T10:58:53;-1.60;99.90
18189;DHT22;9219;50.396;8.546;2023-12-04T11:06:22;-1.30;99.90
18189;DHT22;9219;50.396;8.546;2023-12-04T11:08:53;-1.40;99.90
18189;DHT22;9219;50.396;8.546;2023-12-04T11:11:27;-1.40;99.90
18189;DHT22;9219;50.396;8.546;2023-12-04T11:14:02;-1.40;99.90
18189;DHT22;9219;50.396;8.546;2023-12-04T11:16:35;-1.20;99.90
18189;DHT22;9219;50.396;8.546;2023-12-04T11:19:12;-1.20;99.90
18189;DHT22;9219;50.396;8.546;2023-12-04T11:21:43;-1.20;99.90
18189;DHT22;9219;50.396;8.546;2023-12-04T11:31:14;-1.10;99.90
18189;DHT22;9219;50.396;8.546;2023-12-04T11:33:46;-1.10;99.90
18189;DHT22;9219;50.396;8.546;2023-12-04T11:36:14;-1.20;99.90
18189;DHT22;9219;50.396;8.546;2023-12-04T11:38:44;-1.10;99.90
18189;DHT22;9219;50.396;8.546;2023-12-04T11:41:17;-1.10;99.90
18189;DHT22;9219;50.396;8.546;2023-12-04T11:43:50;-1.10;99.90
18189;DHT22;9219;50.396;8.546;2023-12-04T11:46:21;-1.20;99.90
18189;DHT22;9219;50.396;8.546;2023-12-04T11:53:54;-1.10;99.90
18189;DHT22;9219;50.396;8.546;2023-12-04T11:56:22;-1.00;99.90
18189;DHT22;9219;50.396;8.546;2023-12-04T11:58:49;-1.10;99.90
18189;DHT22;9219;50.396;8.546;2023-12-04T12:01:17;-1.50;99.90
18189;DHT22;9219;50.396;8.546;2023-12-04T12:03:45;-1.50;99.90
18189;DHT22;9219;50.396;8.546;2023-12-04T12:06:17;-1.50;99.90
18189;DHT22;9219;50.396;8.546;2023-12-04T12:08:45;-1.60;99.90
18189;DHT22;9219;50.396;8.546;2023-12-04T12:14:23;-1.50;99.90
18189;DHT22;9219;50.396;8.546;2023-12-04T12:16:50;-1.50;99.90
18189;DHT22;9219;50.396;8.546;2023-12-04T12:19:19;-1.40;99.90
18189;DHT22;9219;50.396;8.546;2023-12-04T12:21:46;-1.30;99.90
18189;DHT22;9219;50.396;8.546;2023-12-04T12:24:15;-1.30;99.90
18189;DHT22;9219;50.396;8.546;2023-12-04T12:26:42;-1.30;99.90
18189;DHT22;9219;50.396;8.546;2023-12-04T12:29:10;-1.30;99.90
18189;DHT22;9219;50.396;8.546;2023-12-04T12:31:39;-1.30;99.90
18189;DHT22;9219;50.396;8.546;2023-12-04T12:39:26;-1.30;99.90
18189;DHT22;9219;50.396;8.546;2023-12-04T12:41:54;-1.10;99.90
18189;DHT22;9219;50.396;8.546;2023-12-04T12:44:21;-1.00;99.90
18189;DHT22;9219;50.396;8.546;2023-12-04T12:46:48;-0.90;99.90
18189;DHT22;9219;50.396;8.546;2023-12-04T12:49:17;-0.90;99.90
18189;DHT22;9219;50.396;8.546;2023-12-04T12:52:02;-0.70;99.90
18189;DHT22;9219;50.396;8.546;2023-12-04T12:54:31;-0.80;99.90
18189;DHT22;9219;50.396;8.546;2023-12-04T13:03:20;-0.80;99.90
18189;DHT22;9219;50.396;8.546;2023-12-04T13:05:48;-1.00;99.90
18189;DHT22;9219;50.396;8.546;2023-12-04T13:08:15;-1.10;99.90
18189;DHT22;9219;50.396;8.546;2023-12-04T13:10:43;-1.10;99.90
18189;DHT22;9219;50.396;8.546;2023-12-04T13:13:10;-1.30;99.90
18189;DHT22;9219;50.396;8.546;2023-12-04T13:15:38;-1.30;99.90
18189;DHT22;9219;50.396;8.546;2023-12-04T13:18:08;-1.30;99.90
18189;DHT22;9219;50.396;8.546;2023-12-04T13:20:36;-1.30;99.90
18189;DHT22;9219;50.396;8.546;2023-12-04T13:28:04;-1.60;99.90
18189;DHT22;9219;50.396;8.546;2023-12-04T13:30:33;-1.70;99.90
18189;DHT22;9219;50.396;8.546;2023-12-04T13:33:01;-1.60;99.90
18189;DHT22;9219;50.396;8.546;2023-12-04T13:35:29;-1.60;99.90
18189;DHT22;9219;50.396;8.546;2023-12-04T13:37:56;-1.70;99.90
18189;DHT22;9219;50.396;8.546;2023-12-04T13:40:25;-1.60;99.90
18189;DHT22;9219;50.396;8.546;2023-12-04T13:42:54;-1.60;99.90
18189;DHT22;9219;50.396;8.546;2023-12-04T13:52:01;-1.60;99.90
18189;DHT22;9219;50.396;8.546;2023-12-04T13:54:33;-1.40;99.90
18189;DHT22;9219;50.396;8.546;2023-12-04T13:57:10;-1.30;99.90
18189;DHT22;9219;50.396;8.546;2023-12-04T13:59:45;-1.30;99.90
18189;DHT22;9219;50.396;8.546;2023-12-04T14:02:13;-1.20;99.90
18189;DHT22;9219;50.396;8.546;2023-12-04T14:04:41;-1.20;99.90
18189;DHT22;9219;50.396;8.546;2023-12-04T14:07:09;-1.10;99.90
18189;DHT22;9219;50.396;8.546;2023-12-04T14:13:28;-1.10;99.90
18189;DHT22;9219;50.396;8.546;2023-12-04T14:15:56;-1.30;99.90
18189;DHT22;9219;50.396;8.546;2023-12-04T14:18:23;-1.20;99.90
18189;DHT22;9219;50.396;8.546;2023-12-04T14:20:52;-1.20;99.90
18189;DHT22;9219;50.396;8.546;2023-12-04T14:23:20;-1.20;99.90
18189;DHT22;9219;50.396;8.546;2023-12-04T14:25:47;-1.20;99.90
18189;DHT22;9219;50.396;8.546;2023-12-04T14:28:14;-1.30;99.90
18189;DHT22;9219;50.396;8.546;2023-12-04T14:30:52;-1.30;99.90
18189;DHT22;9219;50.396;8.546;2023-12-04T14:37:29;-1.20;99.90
18189;DHT22;9219;50.396;8.546;2023-12-04T14:39:56;-1.00;99.90
18189;DHT22;9219;50.396;8.546;2023-12-04T14:42:24;-0.90;99.90
18189;DHT22;9219;50.396;8.546;2023-12-04T14:44:52;-0.90;99.90
18189;DHT22;9219;50.396;8.546;2023-12-04T14:47:20;-1.00;99.90
18189;DHT22;9219;50.396;8.546;2023-12-04T14:49:48;-1.00;99.90
18189;DHT22;9219;50.396;8.546;2023-12-04T14:52:20;-1.10;99.90
18189;DHT22;9219;50.396;8.546;2023-12-04T14:54:50;-1.10;99.90
18189;DHT22;9219;50.396;8.546;2023-12-04T15:02:59;-1.10;99.90
18189;DHT22;9219;50.396;8.546;2023-12-04T15:05:44;-1.10;99.90
18189;DHT22;9219;50.396;8.546;2023-12-04T15:08:55;-1.10;99.90
18189;DHT22;9219;50.396;8.546;2023-12-04T15:11:37;-1.20;99.90
18189;DHT22;9219;50.396;8.546;2023-12-04T15:14:21;-1.20;99.90
18189;DHT22;9219;50.396;8.546;2023-12-04T15:16:59;-1.30;99.90
18189;DHT22;9219;50.396;8.546;2023-12-04T15:23:11;-1.20;99.90
18189;DHT22;9219;50.396;8.546;2023-12-04T15:25:41;-1.20;99.90
18189;DHT22;9219;50.396;8.546;2023-12-04T15:28:08;-1.20;99.90
18189;DHT22;9219;50.396;8.546;2023-12-04T15:30:36;-1.10;99.90
18189;DHT22;9219;50.396;8.546;2023-12-04T15:33:03;-1.10;99.90
18189;DHT22;9219;50.396;8.546;2023-12-04T15:35:31;-1.10;99.90
18189;DHT22;9219;50.396;8.546;2023-12-04T15:37:58;-1.00;99.90
18189;DHT22;9219;50.396;8.546;2023-12-04T15:43:09;-1.00;99.90
18189;DHT22;9219;50.396;8.546;2023-12-04T15:45:37;-1.10;99.90
18189;DHT22;9219;50.396;8.546;2023-12-04T15:48:04;-1.00;99.90
18189;DHT22;9219;50.396;8.546;2023-12-04T15:50:33;-1.10;99.90
18189;DHT22;9219;50.396;8.546;2023-12-04T15:52:59;-1.00;99.90
18189;DHT22;9219;50.396;8.546;2023-12-04T15:55:28;-0.90;99.90
18189;DHT22;9219;50.396;8.546;2023-12-04T15:57:55;-1.00;99.90
18189;DHT22;9219;50.396;8.546;2023-12-04T16:00:25;-1.00;99.90
18189;DHT22;9219;50.396;8.546;2023-12-04T16:08:22;-1.00;99.90
18189;DHT22;9219;50.396;8.546;2023-12-04T16:10:54;-1.00;99.90
18189;DHT22;9219;50.396;8.546;2023-12-04T16:13:21;-1.00;99.90
18189;DHT22;9219;50.396;8.546;2023-12-04T16:15:48;-0.80;99.90
18189;DHT22;9219;50.396;8.546;2023-12-04T16:18:16;-0.80;99.90
18189;DHT22;9219;50.396;8.546;2023-12-04T16:20:44;-0.90;99.90
18189;DHT22;9219;50.396;8.546;2023-12-04T16:23:13;-1.00;99.90
18189;DHT22;9219;50.396;8.546;2023-12-04T16:28:54;-0.90;99.90
18189;DHT22;9219;50.396;8.546;2023-12-04T16:31:25;-0.70;99.90
18189;DHT22;9219;50.396;8.546;2023-12-04T16:33:52;-0.70;99.90
18189;DHT22;9219;50.396;8.546;2023-12-04T16:36:20;-0.60;99.90
18189;DHT22;9219;50.396;8.546;2023-12-04T16:38:49;-0.60;99.90
18189;DHT22;9219;50.396;8.546;2023-12-04T16:41:17;-0.60;99.90
18189;DHT22;9219;50.396;8.546;2023-12-04T16:43:45;-0.60;99.90
18189;DHT22;9219;50.396;8.546;2023-12-04T16:51:16;-0.60;99.90
18189;DHT22;9219;50.396;8.546;2023-12-04T16:53:43;-0.40;99.90
18189;DHT22;9219;50.396;8.546;2023-12-04T16:56:12;-0.30;99.90
18189;DHT22;9219;50.396;8.546;2023-12-04T16:58:40;-0.30;99.90
18189;DHT22;9219;50.396;8.546;2023-12-04T17:01:08;-0.40;99.90
18189;DHT22;9219;50.396;8.546;2023-12-04T17:03:35;-0.40;99.90
18189;DHT22;9219;50.396;8.546;2023-12-04T17:06:05;-0.40;99.90
18189;DHT22;9219;50.396;8.546;2023-12-04T17:16:59;-0.40;99.90
18189;DHT22;9219;50.396;8.546;2023-12-04T17:19:30;-0.60;99.90
18189;DHT22;9219;50.396;8.546;2023-12-04T17:21:58;-0.60;99.90
18189;DHT22;9219;50.396;8.546;2023-12-04T17:24:26;-0.50;99.90
18189;DHT22;9219;50.396;8.546;2023-12-04T17:26:54;-0.50;99.90
18189;DHT22;9219;50.396;8.546;2023-12-04T17:29:25;-0.60;99.90
18189;DHT22;9219;50.396;8.546;2023-12-04T17:31:55;-0.60;99.90
18189;DHT22;9219;50.396;8.546;2023-12-04T17:34:24;-0.50;99.90
18189;DHT22;9219;50.396;8.546;2023-12-04T17:37:32;-0.50;99.90
18189;DHT22;9219;50.396;8.546;2023-12-04T17:40:00;-0.40;99.90
18189;DHT22;9219;50.396;8.546;2023-12-04T17:42:28;-0.20;99.90
18189;DHT22;9219;50.396;8.546;2023-12-04T17:44:55;-0.20;99.90
18189;DHT22;9219;50.396;8.546;2023-12-04T17:47:22;-0.30;99.90
18189;DHT22;9219;50.396;8.546;2023-12-04T17:49:49;-0.30;99.90
18189;DHT22;9219;50.396;8.546;2023-12-04T17:52:17;-0.30;99.90
18189;DHT22;9219;50.396;8.546;2023-12-04T17:58:22;-0.30;99.90
18189;DHT22;9219;50.396;8.546;2023-12-04T18:00:50;-0.30;99.90
18189;DHT22;9219;50.396;8.546;2023-12-04T18:03:17;-0.30;99.90
18189;DHT22;9219;50.396;8.546;2023-12-04T18:05:46;-0.40;99.90
18189;DHT22;9219;50.396;8.546;2023-12-04T18:08:14;-0.40;99.90
18189;DHT22;9219;50.396;8.546;2023-12-04T18:10:41;-0.40;99.90
18189;DHT22;9219;50.396;8.546;2023-12-04T18:13:09;-0.30;99.90
18189;DHT22;9219;50.396;8.546;2023-12-04T18:15:38;-0.30;99.90
18189;DHT22;9219;50.396;8.546;2023-12-04T18:24:03;-0.20;99.90
18189;DHT22;9219;50.396;8.546;2023-12-04T18:26:35;-0.20;99.90
18189;DHT22;9219;50.396;8.546;2023-12-04T18:29:05;-0.10;99.90
18189;DHT22;9219;50.396;8.546;2023-12-04T18:31:35;-0.10;99.90
18189;DHT22;9219;50.396;8.546;2023-12-04T18:34:02;-0.20;99.90
18189;DHT22;9219;50.396;8.546;2023-12-04T18:36:33;-0.10;99.90
18189;DHT22;9219;50.396;8.546;2023-12-04T18:39:01;-0.10;99.90
18189;DHT22;9219;50.396;8.546;2023-12-04T18:46:29;0.10;99.90
18189;DHT22;9219;50.396;8.546;2023-12-04T18:48:57;-0.10;99.90
18189;DHT22;9219;50.396;8.546;2023-12-04T18:51:25;0.00;99.90
18189;DHT22;9219;50.396;8.546;2023-12-04T18:53:53;0.10;99.90
18189;DHT22;9219;50.396;8.546;2023-12-04T18:56:21;0.10;99.90
18189;DHT22;9219;50.396;8.546;2023-12-04T18:58:48;0.20;99.90
18189;DHT22;9219;50.396;8.546;2023-12-04T19:01:16;0.30;99.90
18189;DHT22;9219;50.396;8.546;2023-12-04T19:07:11;0.30;99.90
18189;DHT22;9219;50.396;8.546;2023-12-04T19:09:38;0.10;99.90
18189;DHT22;9219;50.396;8.546;2023-12-04T19:12:06;0.10;99.90
18189;DHT22;9219;50.396;8.546;2023-12-04T19:14:33;0.30;99.90
18189;DHT22;9219;50.396;8.546;2023-12-04T19:17:01;0.30;99.90
18189;DHT22;9219;50.396;8.546;2023-12-04T19:19:28;0.30;99.90
18189;DHT22;9219;50.396;8.546;2023-12-04T19:21:56;0.30;99.90
18189;DHT22;9219;50.396;8.546;2023-12-04T19:27:05;0.30;99.90
18189;DHT22;9219;50.396;8.546;2023-12-04T19:29:32;0.30;99.90
18189;DHT22;9219;50.396;8.546;2023-12-04T19:31:59;0.20;99.90
18189;DHT22;9219;50.396;8.546;2023-12-04T19:34:27;0.20;99.90
18189;DHT22;9219;50.396;8.546;2023-12-04T19:36:55;0.20;99.90
18189;DHT22;9219;50.396;8.546;2023-12-04T19:39:22;0.20;99.90
18189;DHT22;9219;50.396;8.546;2023-12-04T19:41:52;0.20;99.90